Time;durP1;ratioP1;P1;durP2;ratioP2;P2;SDS_P1;SDS_P2;PMS_P1;PMS_P2;Temp;Humidity;BMP_temperature;BMP_pressure;BME280_temperature;BME280_humidity;BME280_pressure;Samples;Min_cycle;Max_cycle;Signal;HPM_P1;HPM_P2
2021/01/01 00:01:40;;;;;;;9.63;3.83;;;17.50;27.40;;;;;;5108068;28;20400;-60
2021/01/01 00:04:07;;;;;;;8.57;3.47;;;17.50;27.90;;;;;;5088774;28;20098;-60
2021/01/01 00:06:37;;;;;;;5.55;3.40;;;17.40;28.10;;;;;;5107153;28;20051;-57
2021/01/01 00:09:06;;;;;;;11.95;4.30;;;17.40;27.90;;;;;;5107160;28;20605;-59
2021/01/01 00:11:33;;;;;;;11.68;4.20;;;17.30;28.10;;;;;;5079019;28;20040;-59
2021/01/01 00:14:00;;;;;;;11.45;4.90;;;17.20;27.90;;;;;;5105334;28;20028;-59
2021/01/01 00:16:26;;;;;;;;;;;17.20;28.00;;;;;;5101545;28;20147;-56
2021/01/01 00:18:52;;;;;;;20.17;8.70;;;17.10;28.20;;;;;;5104322;28;20272;-59
2021/01/01 00:21:19;;;;;;;;;;;17.10;28.20;;;;;;5104040;28;20024;-61
2021/01/01 00:23:45;;;;;;;26.10;8.90;;;17.00;28.30;;;;;;5108825;28;19908;-62
2021/01/01 00:26:16;;;;;;;14.80;5.60;;;16.90;28.20;;;;;;5104825;28;20446;-58
2021/01/01 00:28:43;;;;;;;16.15;7.28;;;16.80;28.10;;;;;;5098723;28;20044;-59
2021/01/01 00:31:24;;;;;;;14.35;5.97;;;16.70;28.20;;;;;;5093734;28;20051;-58
2021/01/01 00:33:52;;;;;;;15.60;5.53;;;16.70;28.40;;;;;;5109007;28;21532;-58
2021/01/01 00:36:20;;;;;;;13.82;7.07;;;16.60;28.40;;;;;;5091034;28;20024;-55
2021/01/01 00:38:52;;;;;;;25.25;11.93;;;16.50;28.70;;;;;;5107080;28;20108;-58
2021/01/01 00:41:33;;;;;;;16.52;9.65;;;16.50;28.20;;;;;;5109476;28;20417;-61
2021/01/01 00:44:00;;;;;;;16.45;8.80;;;16.40;28.50;;;;;;5106918;28;20024;-59
2021/01/01 00:46:28;;;;;;;18.00;8.73;;;16.30;28.50;;;;;;5102642;28;20020;-58
2021/01/01 00:48:58;;;;;;;25.50;11.82;;;16.20;28.70;;;;;;5084805;28;20523;-59
2021/01/01 00:51:30;;;;;;;29.02;14.45;;;16.10;28.80;;;;;;5101483;28;20036;-56
2021/01/01 00:53:57;;;;;;;26.33;12.20;;;15.90;28.90;;;;;;5107671;28;20106;-59
2021/01/01 00:56:26;;;;;;;16.42;7.82;;;15.80;29.20;;;;;;5102194;28;20024;-58
2021/01/01 00:58:54;;;;;;;13.50;5.95;;;15.80;29.30;;;;;;5107828;28;20114;-59
2021/01/01 01:01:24;;;;;;;23.73;6.82;;;15.60;29.20;;;;;;5107260;28;20036;-56
2021/01/01 01:03:52;;;;;;;29.60;14.05;;;15.50;29.30;;;;;;5106045;28;20115;-59
2021/01/01 01:06:20;;;;;;;42.83;21.85;;;15.50;29.40;;;;;;5106887;28;20076;-57
2021/01/01 01:08:47;;;;;;;58.97;33.55;;;15.40;29.60;;;;;;5101942;28;20449;-60
2021/01/01 01:11:13;;;;;;;46.78;25.98;;;15.30;29.60;;;;;;5103224;28;20035;-58
2021/01/01 01:13:39;;;;;;;;;;;15.20;29.50;;;;;;5089074;28;20716;-58
2021/01/01 01:16:06;;;;;;;48.47;29.55;;;15.20;29.70;;;;;;5106504;28;19950;-53
2021/01/01 01:18:33;;;;;;;54.97;27.80;;;15.00;29.80;;;;;;5087944;28;20535;-57
2021/01/01 01:21:00;;;;;;;36.95;21.85;;;15.00;30.50;;;;;;5106938;28;20376;-56
2021/01/01 01:23:26;;;;;;;68.07;35.60;;;14.90;29.90;;;;;;5104918;28;20019;-58
2021/01/01 01:25:53;;;;;;;84.75;45.45;;;14.80;29.60;;;;;;5101559;28;20096;-56
2021/01/01 01:28:19;;;;;;;;;;;14.80;29.10;;;;;;5105370;28;20031;-53
2021/01/01 01:30:45;;;;;;;120.90;62.17;;;14.70;28.90;;;;;;5102843;28;19912;-56
2021/01/01 01:33:12;;;;;;;;;;;14.60;28.60;;;;;;5101534;28;20281;-54
2021/01/01 01:35:38;;;;;;;43.35;23.60;;;14.60;28.20;;;;;;5107004;28;19947;-56
2021/01/01 01:38:05;;;;;;;28.30;12.85;;;14.60;27.40;;;;;;5105728;28;20468;-55
2021/01/01 01:40:32;;;;;;;12.00;6.60;;;14.60;26.60;;;;;;5100952;28;20042;-53
2021/01/01 01:42:58;;;;;;;;;;;14.60;25.80;;;;;;5106162;28;20458;-54
2021/01/01 01:45:24;;;;;;;13.40;5.15;;;14.60;25.40;;;;;;5102666;28;19911;-55
2021/01/01 01:47:52;;;;;;;8.60;4.05;;;14.60;25.20;;;;;;5106974;28;20043;-56
2021/01/01 01:50:18;;;;;;;12.27;3.70;;;14.70;25.20;;;;;;5108265;28;21974;-56
2021/01/01 01:52:46;;;;;;;7.47;3.72;;;14.70;25.60;;;;;;5090300;28;20032;-54
2021/01/01 01:55:14;;;;;;;9.82;2.47;;;14.70;25.90;;;;;;5108049;28;20023;-56
2021/01/01 01:57:41;;;;;;;5.07;2.13;;;14.70;26.20;;;;;;5100876;28;20068;-58
2021/01/01 02:00:38;;;;;;;10.43;2.38;;;14.70;26.70;;;;;;5102390;28;20345;-53
2021/01/01 02:03:04;;;;;;;8.43;2.28;;;14.70;27.00;;;;;;5106942;28;20027;-57
2021/01/01 02:05:30;;;;;;;9.25;2.13;;;14.70;27.80;;;;;;5100060;28;20062;-57
2021/01/01 02:07:57;;;;;;;;;;;14.60;28.20;;;;;;5092299;28;20044;-58
2021/01/01 02:10:23;;;;;;;11.35;2.63;;;14.60;28.80;;;;;;5101950;28;19920;-60
2021/01/01 02:12:49;;;;;;;;;;;14.50;29.20;;;;;;5101931;28;20385;-53
2021/01/01 02:15:16;;;;;;;12.32;2.60;;;14.30;29.70;;;;;;5092279;28;19920;-56
2021/01/01 02:17:43;;;;;;;13.60;3.30;;;14.20;30.10;;;;;;5097179;28;20062;-56
2021/01/01 02:20:10;;;;;;;;;;;14.20;30.50;;;;;;5087676;28;20110;-59
2021/01/01 02:22:37;;;;;;;12.30;3.03;;;14.10;31.00;;;;;;5101168;28;19908;-58
2021/01/01 02:25:08;;;;;;;18.70;3.47;;;14.00;31.50;;;;;;5101901;28;20034;-56
2021/01/01 02:27:36;;;;;;;9.48;2.85;;;13.90;31.80;;;;;;5100945;28;20034;-57
2021/01/01 02:30:03;;;;;;;14.23;3.05;;;13.80;32.00;;;;;;5101151;28;20028;-54
2021/01/01 02:32:30;;;;;;;13.48;3.20;;;13.80;32.60;;;;;;5093762;28;20024;-58
2021/01/01 02:34:57;;;;;;;20.00;4.13;;;13.70;32.80;;;;;;5105689;28;20031;-58
2021/01/01 02:37:24;;;;;;;18.67;5.20;;;13.60;33.20;;;;;;5106602;28;20036;-58
2021/01/01 02:39:51;;;;;;;14.60;4.55;;;13.50;33.30;;;;;;5111535;28;20031;-56
2021/01/01 02:42:18;;;;;;;21.38;5.90;;;13.50;33.20;;;;;;5108515;28;20035;-59
2021/01/01 02:44:46;;;;;;;60.58;30.67;;;13.40;33.50;;;;;;5107164;28;20102;-58
2021/01/01 02:47:14;;;;;;;34.60;16.75;;;13.40;33.80;;;;;;5107783;28;20024;-57
2021/01/01 02:49:41;;;;;;;10.15;5.18;;;13.30;34.00;;;;;;5107260;28;20036;-56
2021/01/01 02:52:08;;;;;;;16.48;4.45;;;13.30;34.10;;;;;;5106232;28;20535;-53
2021/01/01 02:54:34;;;;;;;;;;;13.20;34.20;;;;;;5104462;28;20035;-58
2021/01/01 02:57:01;;;;;;;11.88;3.67;;;13.30;34.10;;;;;;5108867;28;20364;-54
2021/01/01 02:59:27;;;;;;;;;;;13.20;33.90;;;;;;5104488;28;20027;-57
2021/01/01 03:01:54;;;;;;;8.32;2.90;;;13.10;33.80;;;;;;5109467;28;19942;-55
2021/01/01 03:04:20;;;;;;;13.45;2.83;;;13.10;34.20;;;;;;5095573;28;20028;-58
2021/01/01 03:06:47;;;;;;;;;;;13.10;34.10;;;;;;5112764;28;20529;-55
2021/01/01 03:09:13;;;;;;;14.43;3.67;;;13.10;33.80;;;;;;5112475;28;19930;-54
2021/01/01 03:11:40;;;;;;;18.23;5.50;;;13.00;33.40;;;;;;5108772;28;20034;-59
2021/01/01 03:14:06;;;;;;;;;;;13.00;33.30;;;;;;5109326;28;20027;-56
2021/01/01 03:16:32;;;;;;;15.20;5.97;;;12.90;33.20;;;;;;5105940;28;20102;-57
2021/01/01 03:18:59;;;;;;;15.88;5.80;;;12.90;33.30;;;;;;5111349;28;20032;-54
2021/01/01 03:21:25;;;;;;;;;;;12.90;32.90;;;;;;5112199;28;20122;-55
2021/01/01 03:23:52;;;;;;;11.75;5.00;;;12.90;32.70;;;;;;5091045;28;20361;-57
2021/01/01 03:26:18;;;;;;;;;;;12.80;32.20;;;;;;5111807;28;20391;-56
2021/01/01 03:28:45;;;;;;;24.98;5.00;;;12.80;31.80;;;;;;5110956;28;20375;-52
2021/01/01 03:31:11;;;;;;;26.92;14.82;;;12.80;32.10;;;;;;5110689;28;20047;-54
2021/01/01 03:33:38;;;;;;;24.25;14.52;;;12.70;32.20;;;;;;5093573;28;20024;-57
2021/01/01 03:36:04;;;;;;;;;;;12.70;32.40;;;;;;5108808;28;20404;-56
2021/01/01 03:38:31;;;;;;;24.00;10.90;;;12.70;32.50;;;;;;5109620;28;20382;-54
2021/01/01 03:40:58;;;;;;;22.92;11.18;;;12.60;32.80;;;;;;5109861;28;20514;-53
2021/01/01 03:43:25;;;;;;;28.15;13.40;;;12.50;32.90;;;;;;5110386;28;20019;-55
2021/01/01 03:45:51;;;;;;;20.35;9.00;;;12.50;32.90;;;;;;5101675;28;20032;-53
2021/01/01 03:48:18;;;;;;;;;;;12.50;32.90;;;;;;5107833;28;20160;-54
2021/01/01 03:50:45;;;;;;;18.65;8.13;;;12.50;33.30;;;;;;5111427;28;19985;-55
2021/01/01 03:53:12;;;;;;;21.92;8.45;;;12.30;33.40;;;;;;5110842;28;20419;-54
2021/01/01 03:55:38;;;;;;;;;;;12.30;34.00;;;;;;5108077;28;20036;-54
2021/01/01 03:58:05;;;;;;;18.75;8.18;;;12.30;34.20;;;;;;5104478;28;19916;-53
2021/01/01 04:00:31;;;;;;;;;;;12.30;34.80;;;;;;5101485;28;20051;-54
2021/01/01 04:02:57;;;;;;;24.50;9.80;;;12.30;35.00;;;;;;5107351;28;20381;-59
2021/01/01 04:05:24;;;;;;;;;;;12.20;35.60;;;;;;5105640;28;20028;-55
2021/01/01 04:07:50;;;;;;;19.88;10.27;;;12.20;35.70;;;;;;5107141;28;19908;-54
2021/01/01 04:10:16;;;;;;;;;;;12.10;36.20;;;;;;5108101;28;20032;-55
2021/01/01 04:12:43;;;;;;;19.02;8.30;;;12.00;35.30;;;;;;5087151;28;19916;-57
2021/01/01 04:15:11;;;;;;;18.38;9.32;;;12.00;35.70;;;;;;5090705;28;20558;-55
2021/01/01 04:17:38;;;;;;;21.15;11.63;;;11.90;35.80;;;;;;5088200;28;20024;-55
2021/01/01 04:20:04;;;;;;;;;;;11.70;36.40;;;;;;5110232;28;20121;-53
2021/01/01 04:22:31;;;;;;;27.08;15.90;;;11.70;36.90;;;;;;5086170;28;19908;-56
2021/01/01 04:24:57;;;;;;;;;;;11.60;36.80;;;;;;5102963;28;20047;-57
2021/01/01 04:27:23;;;;;;;42.53;18.15;;;11.60;36.80;;;;;;5107039;28;19908;-58
2021/01/01 04:29:49;;;;;;;;;;;11.60;37.40;;;;;;5101304;28;20376;-53
2021/01/01 04:32:16;;;;;;;38.72;16.63;;;11.50;37.30;;;;;;5102787;28;20000;-54
2021/01/01 04:34:42;;;;;;;;;;;11.40;36.80;;;;;;5088865;28;20028;-55
2021/01/01 04:37:09;;;;;;;39.58;17.35;;;11.40;36.90;;;;;;5108810;28;20311;-56
2021/01/01 04:39:35;;;;;;;;;;;11.40;36.50;;;;;;5101821;28;20476;-53
2021/01/01 04:42:02;;;;;;;56.83;18.83;;;11.30;36.60;;;;;;5108380;28;19914;-56
2021/01/01 04:44:29;;;;;;;63.58;20.52;;;11.20;36.80;;;;;;5098731;28;20364;-57
2021/01/01 04:46:55;;;;;;;;;;;11.20;37.20;;;;;;5102590;28;20027;-59
2021/01/01 04:49:22;;;;;;;60.70;22.00;;;11.20;37.30;;;;;;5088487;28;19916;-56
2021/01/01 04:51:49;;;;;;;;;;;11.10;37.80;;;;;;5087217;28;20075;-54
2021/01/01 04:54:17;;;;;;;56.90;21.77;;;11.10;37.90;;;;;;5087659;28;20005;-51
2021/01/01 04:56:51;;;;;;;59.88;20.95;;;11.10;37.70;;;;;;5085175;28;20028;-52
2021/01/01 04:59:18;;;;;;;65.53;21.27;;;11.10;38.10;;;;;;5085330;28;20024;-52
2021/01/01 05:01:45;;;;;;;57.20;20.90;;;11.00;38.20;;;;;;5080586;28;20043;-52
2021/01/01 05:04:13;;;;;;;73.15;22.63;;;11.00;38.40;;;;;;5080540;28;20024;-56
2021/01/01 05:06:41;;;;;;;80.28;22.85;;;11.00;38.10;;;;;;5077433;28;20102;-56
2021/01/01 05:09:08;;;;;;;53.20;21.02;;;10.90;38.10;;;;;;5089696;28;20033;-52
2021/01/01 05:11:35;;;;;;;55.63;22.02;;;10.90;38.50;;;;;;5079758;28;20032;-55
2021/01/01 05:14:02;;;;;;;;;;;10.90;38.60;;;;;;5083691;28;20107;-52
2021/01/01 05:16:28;;;;;;;81.05;24.48;;;10.80;38.60;;;;;;5081956;28;19908;-55
2021/01/01 05:18:55;;;;;;;69.00;23.63;;;10.80;38.70;;;;;;5079441;28;20032;-52
2021/01/01 05:21:31;;;;;;;73.38;25.63;;;10.80;39.00;;;;;;5066264;28;20027;-53
2021/01/01 05:23:57;;;;;;;67.00;25.10;;;10.80;39.40;;;;;;5082731;28;20089;-53
2021/01/01 05:26:27;;;;;;;;;;;10.70;39.40;;;;;;5078018;28;20024;-52
2021/01/01 05:29:06;;;;;;;73.03;26.35;;;10.70;39.20;;;;;;5078906;28;19916;-53
2021/01/01 05:31:38;;;;;;;78.05;26.80;;;10.70;39.50;;;;;;5080764;28;20042;-53
2021/01/01 05:34:04;;;;;;;68.90;27.77;;;10.70;39.50;;;;;;5066902;28;20170;-52
2021/01/01 05:36:39;;;;;;;67.15;26.10;;;10.70;38.70;;;;;;5080696;28;20020;-56
2021/01/01 05:39:22;;;;;;;67.35;26.48;;;10.70;39.10;;;;;;5082912;28;20115;-53
2021/01/01 05:41:50;;;;;;;71.13;25.88;;;10.80;38.90;;;;;;5081195;28;20020;-55
2021/01/01 05:44:25;;;;;;;64.65;24.88;;;10.80;38.40;;;;;;5079623;28;20048;-51
2021/01/01 05:47:13;;;;;;;72.57;29.27;;;10.80;37.90;;;;;;5084518;28;20105;-55
2021/01/01 05:49:42;;;;;;;84.30;33.97;;;10.90;37.30;;;;;;5081192;28;20040;-52
2021/01/01 05:52:08;;;;;;;82.43;36.28;;;10.90;37.80;;;;;;5085918;28;20058;-53
2021/01/01 05:54:36;;;;;;;65.00;27.98;;;10.90;37.00;;;;;;5081247;28;20032;-52
2021/01/01 05:57:04;;;;;;;43.38;18.88;;;10.90;37.20;;;;;;5081190;28;20085;-53
2021/01/01 05:59:35;;;;;;;43.92;17.25;;;11.00;36.50;;;;;;5081095;28;20016;-57
2021/01/01 06:02:04;;;;;;;41.95;17.13;;;11.00;35.50;;;;;;5083071;28;20038;-53
2021/01/01 06:04:31;;;;;;;38.50;14.32;;;11.00;35.20;;;;;;5085913;28;20169;-53
2021/01/01 06:07:01;;;;;;;36.60;13.60;;;11.00;34.80;;;;;;5081533;28;20035;-52
2021/01/01 06:09:32;;;;;;;37.08;13.13;;;11.00;34.10;;;;;;5081665;28;20137;-51
2021/01/01 06:12:11;;;;;;;36.35;12.00;;;11.00;34.40;;;;;;5081523;28;20024;-52
2021/01/01 06:14:45;;;;;;;34.35;11.98;;;11.10;34.40;;;;;;5083046;28;20035;-54
2021/01/01 06:17:12;;;;;;;35.53;11.73;;;11.10;35.50;;;;;;5064581;28;20035;-51
2021/01/01 06:19:58;;;;;;;33.72;11.10;;;11.00;35.70;;;;;;5077987;28;20017;-53
2021/01/01 06:22:32;;;;;;;30.50;12.55;;;11.00;36.00;;;;;;5080476;28;20085;-52
2021/01/01 06:25:00;;;;;;;33.75;12.73;;;11.00;35.90;;;;;;5083240;28;20040;-53
2021/01/01 06:27:29;;;;;;;27.92;11.50;;;11.10;36.00;;;;;;5083982;28;20111;-51
2021/01/01 06:30:08;;;;;;;24.13;11.75;;;11.00;35.60;;;;;;5082854;28;20032;-52
2021/01/01 06:32:36;;;;;;;33.30;11.35;;;11.00;35.20;;;;;;5084686;28;20074;-51
2021/01/01 06:35:20;;;;;;;25.75;10.82;;;11.00;34.40;;;;;;5084002;28;20020;-51
2021/01/01 06:37:54;;;;;;;26.50;10.50;;;11.00;34.30;;;;;;5084493;28;20039;-52
2021/01/01 06:40:21;;;;;;;25.50;10.82;;;11.00;34.00;;;;;;5090312;28;20102;-53
2021/01/01 06:43:07;;;;;;;26.35;9.50;;;11.10;33.80;;;;;;5087129;28;20036;-53
2021/01/01 06:45:46;;;;;;;22.27;9.25;;;11.10;33.40;;;;;;5086637;28;20089;-55
2021/01/01 06:48:32;;;;;;;28.60;10.32;;;11.20;33.20;;;;;;5072526;28;20054;-55
2021/01/01 06:50:59;;;;;;;24.17;9.52;;;11.20;33.20;;;;;;5084990;28;20028;-52
2021/01/01 06:53:30;;;;;;;27.70;10.68;;;11.20;33.70;;;;;;5086683;28;20016;-54
2021/01/01 06:56:20;;;;;;;39.17;11.45;;;11.30;34.00;;;;;;5086432;28;20058;-51
2021/01/01 06:58:46;;;;;;;27.02;10.48;;;11.30;34.40;;;;;;5085138;28;20055;-55
2021/01/01 07:01:16;;;;;;;;;;;11.30;34.50;;;;;;5084604;28;20024;-54
2021/01/01 07:03:43;;;;;;;31.95;11.35;;;11.30;35.70;;;;;;5080958;28;19920;-52
2021/01/01 07:06:10;;;;;;;26.45;12.65;;;11.20;36.70;;;;;;5088769;28;20162;-53
2021/01/01 07:08:43;;;;;;;;;;;11.10;36.20;;;;;;5077638;28;20020;-51
2021/01/01 07:11:24;;;;;;;26.65;11.77;;;11.10;35.90;;;;;;5086461;28;19923;-55
2021/01/01 07:13:52;;;;;;;23.35;11.02;;;11.10;34.90;;;;;;5066530;28;20111;-52
2021/01/01 07:16:19;;;;;;;28.35;11.15;;;11.10;35.00;;;;;;5086385;28;20077;-52
2021/01/01 07:18:46;;;;;;;29.63;10.95;;;11.10;35.40;;;;;;5084414;28;20103;-53
2021/01/01 07:21:18;;;;;;;31.33;11.55;;;11.10;36.10;;;;;;5085452;28;20024;-56
2021/01/01 07:23:45;;;;;;;22.85;10.55;;;11.10;36.80;;;;;;5085556;28;20027;-54
2021/01/01 07:26:13;;;;;;;25.10;10.48;;;11.10;36.90;;;;;;5084771;28;20020;-54
2021/01/01 07:28:41;;;;;;;25.75;10.80;;;11.00;37.50;;;;;;5084705;28;20081;-56
2021/01/01 07:31:12;;;;;;;31.50;11.70;;;11.00;37.50;;;;;;5088837;28;20051;-56
2021/01/01 07:33:39;;;;;;;30.65;11.35;;;10.90;38.00;;;;;;5087546;28;20103;-54
2021/01/01 07:36:09;;;;;;;26.58;13.70;;;10.90;37.50;;;;;;5082991;28;20033;-54
2021/01/01 07:38:45;;;;;;;38.28;19.02;;;10.80;37.60;;;;;;5064653;28;20104;-56
2021/01/01 07:41:12;;;;;;;38.30;20.33;;;10.80;37.80;;;;;;5085507;28;20032;-54
2021/01/01 07:43:39;;;;;;;41.90;21.38;;;10.80;38.20;;;;;;5086756;28;20024;-52
2021/01/01 07:46:10;;;;;;;36.70;16.85;;;10.80;37.90;;;;;;5084964;28;20020;-51
2021/01/01 07:48:38;;;;;;;20.98;11.18;;;10.70;37.70;;;;;;5083050;28;20500;-52
2021/01/01 07:51:06;;;;;;;30.60;10.73;;;10.70;37.80;;;;;;5084386;28;20074;-53
2021/01/01 07:53:34;;;;;;;20.40;9.85;;;10.70;38.60;;;;;;5085583;28;20491;-52
2021/01/01 07:56:02;;;;;;;20.27;10.30;;;10.80;39.00;;;;;;5090373;28;20115;-53
2021/01/01 07:58:30;;;;;;;31.55;10.88;;;10.80;38.40;;;;;;5089862;28;20028;-51
2021/01/01 08:01:18;;;;;;;27.33;12.10;;;10.70;38.50;;;;;;5090375;28;21249;-55
2021/01/01 08:03:45;;;;;;;39.95;13.63;;;10.80;38.90;;;;;;5089450;28;20472;-53
2021/01/01 08:06:12;;;;;;;34.20;12.90;;;10.70;38.60;;;;;;5090934;28;20036;-56
2021/01/01 08:08:38;;;;;;;27.90;12.30;;;10.70;38.90;;;;;;5088676;28;20024;-52
2021/01/01 08:11:07;;;;;;;;;;;10.70;39.20;;;;;;5091676;28;20040;-53
2021/01/01 08:13:34;;;;;;;23.80;12.82;;;10.60;39.70;;;;;;5090359;28;19908;-53
2021/01/01 08:16:15;;;;;;;36.85;16.95;;;10.60;39.80;;;;;;5090507;28;20492;-52
2021/01/01 08:18:42;;;;;;;40.90;21.50;;;10.70;40.40;;;;;;5071345;28;20036;-51
2021/01/01 08:21:09;;;;;;;40.60;17.95;;;10.70;40.80;;;;;;5065499;28;20385;-54
2021/01/01 08:23:57;;;;;;;31.70;16.67;;;10.60;40.40;;;;;;5088570;28;20106;-53
2021/01/01 08:26:25;;;;;;;31.27;16.40;;;10.60;40.60;;;;;;5084900;28;20112;-55
2021/01/01 08:28:53;;;;;;;31.90;17.63;;;10.60;41.00;;;;;;5089462;28;20540;-52
2021/01/01 08:31:23;;;;;;;39.15;18.95;;;10.60;41.30;;;;;;5087656;28;20075;-51
2021/01/01 08:33:54;;;;;;;38.75;17.25;;;10.60;41.30;;;;;;5089027;28;20078;-53
2021/01/01 08:36:33;;;;;;;30.95;14.88;;;10.60;41.80;;;;;;5089532;28;20028;-53
2021/01/01 08:39:17;;;;;;;29.88;15.07;;;10.60;42.30;;;;;;5086546;28;20028;-56
2021/01/01 08:41:46;;;;;;;54.83;18.27;;;10.60;42.50;;;;;;5088867;28;20095;-53
2021/01/01 08:44:13;;;;;;;37.78;17.17;;;10.50;42.60;;;;;;5089794;28;20028;-53
2021/01/01 08:46:40;;;;;;;42.33;17.67;;;10.50;42.60;;;;;;5089137;28;20039;-57
2021/01/01 08:49:18;;;;;;;35.50;18.23;;;10.50;43.00;;;;;;5092665;28;20044;-53
2021/01/01 08:51:46;;;;;;;37.55;18.20;;;10.50;43.20;;;;;;5094325;28;20051;-52
2021/01/01 08:54:26;;;;;;;38.70;15.80;;;10.40;44.10;;;;;;5093421;28;20020;-52
2021/01/01 08:57:00;;;;;;;33.45;15.18;;;10.40;44.40;;;;;;5090603;28;20107;-52
2021/01/01 08:59:28;;;;;;;36.20;15.95;;;10.30;44.90;;;;;;5095982;28;20105;-59
2021/01/01 09:01:55;;;;;;;34.00;15.30;;;10.30;45.20;;;;;;5092400;28;20052;-56
2021/01/01 09:04:29;;;;;;;33.72;15.52;;;10.30;59.70;;;;;;5093471;28;20020;-55
2021/01/01 09:06:59;;;;;;;34.13;15.95;;;10.10;74.20;;;;;;5095584;28;20176;-55
2021/01/01 09:09:28;;;;;;;27.60;14.52;;;9.80;50.90;;;;;;5085127;28;20019;-57
2021/01/01 09:12:16;;;;;;;36.15;14.90;;;10.30;68.70;;;;;;5081027;28;20036;-53
2021/01/01 09:14:52;;;;;;;;;;;10.30;46.20;;;;;;5080812;28;20431;-56
2021/01/01 09:17:25;;;;;;;22.77;12.15;;;10.20;46.40;;;;;;5093038;28;19915;-57
2021/01/01 09:20:09;;;;;;;19.38;9.65;;;10.20;47.10;;;;;;5071380;28;20400;-58
2021/01/01 09:22:40;;;;;;;19.48;7.35;;;10.20;47.70;;;;;;5071378;28;20554;-55
2021/01/01 09:25:26;;;;;;;14.45;7.50;;;10.20;48.10;;;;;;5084202;28;20016;-59
2021/01/01 09:27:54;;;;;;;15.68;8.45;;;10.30;48.40;;;;;;5090130;28;20031;-57
2021/01/01 09:30:25;;;;;;;16.10;8.23;;;10.20;48.90;;;;;;5091707;28;20103;-54
2021/01/01 09:32:55;;;;;;;16.50;9.25;;;10.30;48.50;;;;;;5093197;28;20031;-54
2021/01/01 09:35:21;;;;;;;29.00;13.15;;;10.20;48.40;;;;;;5091036;28;20043;-57
2021/01/01 09:37:50;;;;;;;23.40;12.65;;;10.30;49.20;;;;;;5092439;28;20027;-57
2021/01/01 09:40:18;;;;;;;21.02;9.43;;;10.20;49.70;;;;;;5090949;28;20082;-56
2021/01/01 09:42:48;;;;;;;18.92;8.70;;;10.20;49.80;;;;;;5066773;28;20435;-56
2021/01/01 09:45:15;;;;;;;20.23;11.45;;;10.20;49.70;;;;;;5088271;28;20040;-57
2021/01/01 09:47:42;;;;;;;20.70;9.52;;;10.10;49.00;;;;;;5075747;28;20035;-55
2021/01/01 09:50:10;;;;;;;16.13;8.05;;;10.10;49.60;;;;;;5095310;28;20036;-55
2021/01/01 09:52:37;;;;;;;20.63;9.52;;;10.10;50.20;;;;;;5107130;28;20109;-54
2021/01/01 09:55:08;;;;;;;14.18;7.65;;;10.20;50.60;;;;;;5104362;28;20027;-58
2021/01/01 09:57:38;;;;;;;18.73;8.15;;;10.10;50.90;;;;;;5106357;28;20059;-54
2021/01/01 10:00:10;;;;;;;10.10;5.50;;;10.10;51.10;;;;;;5090349;28;20112;-55
2021/01/01 10:02:36;;;;;;;9.85;5.10;;;10.10;50.90;;;;;;5105272;28;20045;-55
2021/01/01 10:05:04;;;;;;;10.57;5.38;;;10.10;50.60;;;;;;5086986;28;20038;-53
2021/01/01 10:07:31;;;;;;;19.45;10.35;;;10.10;50.70;;;;;;5085871;28;20099;-56
2021/01/01 10:09:58;;;;;;;24.17;13.70;;;10.10;50.40;;;;;;5109086;28;20027;-54
2021/01/01 10:12:25;;;;;;;39.35;17.98;;;10.20;50.70;;;;;;5100449;28;20047;-54
2021/01/01 10:14:55;;;;;;;36.28;20.08;;;10.20;50.60;;;;;;5102577;28;20020;-58
2021/01/01 10:17:30;;;;;;;40.17;22.05;;;10.20;50.70;;;;;;5080737;28;20039;-54
2021/01/01 10:19:57;;;;;;;38.10;20.00;;;10.20;50.70;;;;;;5100290;28;20145;-54
2021/01/01 10:22:23;;;;;;;;;;;10.20;50.40;;;;;;5105154;28;20067;-52
2021/01/01 10:24:50;;;;;;;25.10;12.82;;;10.10;50.50;;;;;;5107244;28;20324;-58
2021/01/01 10:27:16;;;;;;;;;;;10.10;50.80;;;;;;5105357;28;20371;-53
2021/01/01 10:29:43;;;;;;;23.65;11.88;;;10.00;50.90;;;;;;5107642;28;20359;-55
2021/01/01 10:32:11;;;;;;;24.75;11.73;;;10.00;51.00;;;;;;5090644;28;20035;-55
2021/01/01 10:34:42;;;;;;;25.50;13.40;;;9.90;50.80;;;;;;5106171;28;20024;-55
2021/01/01 10:37:10;;;;;;;23.98;14.23;;;9.90;50.90;;;;;;5108286;28;20369;-53
2021/01/01 10:39:37;;;;;;;33.08;15.60;;;9.90;51.70;;;;;;5105147;28;20016;-53
2021/01/01 10:42:08;;;;;;;30.83;16.58;;;9.90;51.40;;;;;;5107311;28;20019;-57
2021/01/01 10:44:36;;;;;;;31.15;16.48;;;9.90;51.30;;;;;;5088678;28;20468;-55
2021/01/01 10:47:03;;;;;;;27.02;12.40;;;9.80;51.60;;;;;;5084936;28;20537;-57
2021/01/01 10:49:30;;;;;;;30.30;15.80;;;9.80;51.80;;;;;;5070770;28;20040;-53
2021/01/01 10:52:01;;;;;;;50.97;22.88;;;9.80;51.30;;;;;;5088133;28;20115;-54
2021/01/01 10:54:31;;;;;;;52.42;20.02;;;9.80;50.70;;;;;;5090125;28;20024;-56
2021/01/01 10:56:57;;;;;;;39.65;20.38;;;9.80;50.60;;;;;;5088127;28;20369;-52
2021/01/01 10:59:24;;;;;;;;;;;9.80;51.00;;;;;;5107650;28;20055;-57
2021/01/01 11:01:57;;;;;;;51.65;22.25;;;9.80;50.70;;;;;;5107229;28;19941;-52
2021/01/01 11:04:24;;;;;;;50.72;23.88;;;9.90;50.90;;;;;;5102585;28;20054;-57
2021/01/01 11:06:50;;;;;;;56.10;24.45;;;9.90;50.40;;;;;;5105728;28;20024;-53
2021/01/01 11:09:18;;;;;;;66.97;27.73;;;9.80;50.20;;;;;;5104782;28;20031;-54
2021/01/01 11:11:46;;;;;;;73.90;30.85;;;9.80;50.30;;;;;;5085519;28;20039;-57
2021/01/01 12:25:37;;;;;;;26.58;13.80;;;9.70;52.60;;;;;;5106195;28;20476;-51
2021/01/01 12:28:06;;;;;;;27.98;13.10;;;9.60;52.80;;;;;;5104751;28;20019;-51
2021/01/01 12:30:33;;;;;;;24.92;13.40;;;9.60;52.70;;;;;;5105543;28;20030;-51
2021/01/01 12:33:02;;;;;;;31.98;13.48;;;9.60;52.60;;;;;;5102362;28;20040;-54
2021/01/01 12:35:28;;;;;;;24.80;12.82;;;9.60;52.70;;;;;;5104630;28;20430;-52
2021/01/01 12:38:06;;;;;;;26.15;12.00;;;9.60;52.80;;;;;;5104490;28;20111;-55
2021/01/01 12:40:34;;;;;;;20.35;10.07;;;9.60;52.90;;;;;;5106278;28;20020;-54
2021/01/01 12:43:03;;;;;;;21.45;7.53;;;9.50;52.60;;;;;;5102568;28;20069;-54
2021/01/01 12:45:29;;;;;;;13.90;6.45;;;9.60;52.80;;;;;;5106100;28;20020;-51
2021/01/01 12:47:56;;;;;;;;;;;9.60;52.70;;;;;;5107447;28;20130;-52
2021/01/01 12:50:23;;;;;;;12.65;4.68;;;9.80;52.70;;;;;;5107697;28;19907;-53
2021/01/01 12:52:59;;;;;;;9.88;3.50;;;9.80;52.30;;;;;;5106053;28;20127;-52
2021/01/01 12:55:27;;;;;;;6.00;3.05;;;9.90;52.10;;;;;;5104592;28;20028;-55
2021/01/01 12:57:54;;;;;;;8.95;2.75;;;10.00;51.70;;;;;;5106197;28;20085;-53
2021/01/01 13:00:21;;;;;;;10.80;2.45;;;10.10;51.30;;;;;;5103576;28;20028;-54
2021/01/01 13:02:48;;;;;;;6.93;2.72;;;10.20;50.90;;;;;;5085082;28;20020;-56
2021/01/01 13:05:15;;;;;;;5.00;2.65;;;10.30;50.60;;;;;;5078994;28;20028;-54
2021/01/01 13:07:42;;;;;;;4.35;2.65;;;10.30;50.40;;;;;;5101996;28;20494;-57
2021/01/01 13:10:12;;;;;;;9.23;2.72;;;10.30;50.30;;;;;;5089777;28;20110;-52
2021/01/01 13:12:40;;;;;;;7.40;2.40;;;10.30;50.20;;;;;;5107243;28;20786;-53
2021/01/01 13:15:07;;;;;;;8.82;3.05;;;10.30;50.20;;;;;;5107898;28;20039;-52
2021/01/01 13:17:34;;;;;;;9.05;2.47;;;10.30;50.40;;;;;;5103791;28;20054;-54
2021/01/01 13:20:02;;;;;;;5.25;1.95;;;10.30;50.40;;;;;;5100008;28;20019;-52
2021/01/01 13:22:29;;;;;;;4.75;2.20;;;10.40;50.30;;;;;;5091374;28;20131;-51
2021/01/01 13:24:56;;;;;;;5.32;2.38;;;10.30;50.30;;;;;;5108805;28;20031;-56
2021/01/01 13:27:27;;;;;;;;;;;10.30;50.50;;;;;;5092016;28;20054;-55
2021/01/01 13:29:55;;;;;;;5.35;1.83;;;10.30;50.60;;;;;;5086599;28;19918;-54
2021/01/01 13:32:22;;;;;;;6.55;2.05;;;10.30;50.60;;;;;;5100347;28;20090;-57
2021/01/01 13:34:49;;;;;;;4.28;1.63;;;10.20;50.70;;;;;;5081790;28;20023;-56
2021/01/01 13:37:16;;;;;;;2.65;1.80;;;10.20;50.60;;;;;;5108895;28;20093;-56
2021/01/01 13:39:43;;;;;;;4.43;1.85;;;10.30;50.90;;;;;;5108321;28;20051;-55
2021/01/01 13:42:17;;;;;;;4.93;1.60;;;10.30;51.40;;;;;;5086607;28;20050;-54
2021/01/01 13:44:43;;;;;;;5.07;1.88;;;10.30;51.20;;;;;;5104673;28;20023;-53
2021/01/01 13:47:09;;;;;;;;;;;10.30;51.60;;;;;;5107456;28;20043;-55
2021/01/01 13:49:36;;;;;;;9.27;1.77;;;10.20;51.90;;;;;;5105724;28;19938;-52
2021/01/01 13:52:03;;;;;;;5.75;1.85;;;10.20;52.50;;;;;;5108506;28;20142;-55
2021/01/01 13:54:30;;;;;;;8.85;1.58;;;10.10;52.80;;;;;;5108454;28;20035;-53
2021/01/01 13:56:56;;;;;;;4.32;1.50;;;10.10;52.70;;;;;;5106086;28;20114;-52
2021/01/01 13:59:22;;;;;;;;;;;10.10;52.60;;;;;;5109433;28;20020;-57
2021/01/01 14:01:49;;;;;;;4.35;1.58;;;10.10;53.00;;;;;;5108108;28;19908;-56
2021/01/01 14:04:15;;;;;;;4.68;1.33;;;10.00;53.20;;;;;;5108887;28;20054;-53
2021/01/01 14:06:41;;;;;;;;;;;9.90;53.20;;;;;;5105957;28;20047;-52